Adrian, Ohio
Current Conditions -  °F | °C
As of 6:53 PM on Friday 31 Oct 2014 (Local Time) from KFDY Reporting Station
Light Rain Light Rain  
Wind Chill: 29°   Ceiling: 1100
Heat Index: 40°   Visibility: 9mi
Dew Point: 36°   Wind: 25mph
Humidity: 86%   Direction: 350°N
Pressure: 29.93"   Gusts: 31mph
Location:  41°N, 83.32°W
Report Text: KFDY 312253Z AUTO 35022G27KT 9SM -RA OVC011 04/02 A2993 RMK AO2 PK WND 34031/2238 SLP136 P0001 T00440022
Loading
Personal Weather Stations






























Interactive Weather Map
Tropical Storm Tracking
New forecast layout! Learn more

10-Day Weather Forecast

Advertisements
Track Severe Weather on mobile